createdAt,value
2017-08-24T00:00:36.444Z,19.6
2017-08-24T00:01:38.356Z,19.6
2017-08-24T00:02:40.267Z,19.6
2017-08-24T00:03:42.209Z,19.5
2017-08-24T00:04:44.179Z,19.5
2017-08-24T00:05:46.151Z,19.6
2017-08-24T00:06:48.080Z,19.6
2017-08-24T00:07:50.093Z,19.5
2017-08-24T00:08:52.036Z,19.6
2017-08-24T00:09:53.891Z,19.5
2017-08-24T00:10:55.774Z,19.5
2017-08-24T00:11:57.729Z,19.5
2017-08-24T00:12:59.549Z,19.4
2017-08-24T00:14:01.630Z,19.5
2017-08-24T00:15:03.649Z,19.5
2017-08-24T00:16:05.563Z,19.4
2017-08-24T00:17:07.705Z,19.4
2017-08-24T00:18:09.785Z,19.5
2017-08-24T00:19:11.841Z,19.4
2017-08-24T00:20:13.788Z,19.4
2017-08-24T00:21:15.669Z,19.4
2017-08-24T00:22:17.603Z,19.4
2017-08-24T00:23:19.528Z,19.3
2017-08-24T00:24:21.506Z,19.3
2017-08-24T00:25:23.438Z,19.4
2017-08-24T00:26:25.438Z,19.4
2017-08-24T00:27:27.408Z,19.4
2017-08-24T00:28:29.383Z,19.4
2017-08-24T00:29:31.361Z,19.4
2017-08-24T00:30:33.289Z,19.4
2017-08-24T00:31:35.231Z,19.4
2017-08-24T00:32:37.094Z,19.3
2017-08-24T00:33:39.143Z,19.4
2017-08-24T00:34:41.179Z,19.5
2017-08-24T00:35:43.191Z,19.4
2017-08-24T00:36:45.090Z,19.5
2017-08-24T00:37:47.115Z,19.5
2017-08-24T00:38:49.180Z,19.4
2017-08-24T00:39:51.024Z,19.4
2017-08-24T00:40:52.980Z,19.4
2017-08-24T00:41:55.112Z,19.5
2017-08-24T00:42:57.097Z,19.5
2017-08-24T00:43:59.029Z,19.5
2017-08-24T00:45:01.071Z,19.5
2017-08-24T00:46:03.056Z,19.5
2017-08-24T00:47:05.044Z,19.4
2017-08-24T00:48:06.970Z,19.5
2017-08-24T00:49:08.949Z,19.4
2017-08-24T00:50:10.906Z,19.5
2017-08-24T00:51:13.015Z,19.4
2017-08-24T00:52:14.940Z,19.4
2017-08-24T00:53:16.887Z,19.6
2017-08-24T00:54:18.779Z,19.5
2017-08-24T00:55:20.700Z,19.4
2017-08-24T00:56:22.769Z,19.4
2017-08-24T00:57:24.645Z,19.6
2017-08-24T00:58:26.615Z,19.5
2017-08-24T00:59:28.524Z,19.5
2017-08-24T01:00:30.471Z,19.5
2017-08-24T01:01:32.378Z,19.5
2017-08-24T01:02:34.448Z,19.5
2017-08-24T01:03:36.385Z,19.5
2017-08-24T01:04:38.246Z,19.5
2017-08-24T01:05:40.195Z,19.5
2017-08-24T01:06:42.116Z,19.6
2017-08-24T01:07:43.953Z,19.6
2017-08-24T01:08:45.904Z,19.5
2017-08-24T01:09:47.724Z,19.5
2017-08-24T01:10:49.650Z,19.6
2017-08-24T01:11:51.661Z,19.5
2017-08-24T01:12:53.594Z,19.6
2017-08-24T01:13:55.587Z,19.6
2017-08-24T01:14:57.505Z,19.7
2017-08-24T01:15:59.400Z,19.6
2017-08-24T01:17:01.434Z,19.6
2017-08-24T01:18:03.487Z,19.6
2017-08-24T01:19:05.476Z,19.6
2017-08-24T01:20:07.496Z,19.6
2017-08-24T01:21:09.689Z,19.6
2017-08-24T01:22:11.599Z,19.6
2017-08-24T01:23:13.585Z,19.7
2017-08-24T01:24:15.605Z,19.7
2017-08-24T01:25:17.705Z,19.7
2017-08-24T01:26:19.517Z,19.5
2017-08-24T01:27:21.374Z,19.4
2017-08-24T01:28:23.301Z,19.4
2017-08-24T01:29:25.334Z,19.5
2017-08-24T01:30:27.538Z,19.5
2017-08-24T01:31:29.625Z,19.5
2017-08-24T01:32:31.612Z,19.4
2017-08-24T01:33:33.579Z,19.5
2017-08-24T01:34:35.441Z,19.5
2017-08-24T01:35:37.431Z,19.5
2017-08-24T01:36:39.252Z,19.5
2017-08-24T01:37:41.193Z,19.4
2017-08-24T01:38:43.141Z,19.4
2017-08-24T01:39:44.984Z,19.5
2017-08-24T01:40:46.939Z,19.4
2017-08-24T01:41:48.934Z,19.4
2017-08-24T01:42:50.883Z,19.4
2017-08-24T01:43:52.732Z,19.4
2017-08-24T01:44:54.728Z,19.3
2017-08-24T01:45:56.693Z,19.5
2017-08-24T01:46:58.634Z,19.4
2017-08-24T01:48:00.593Z,19.4
2017-08-24T01:49:02.664Z,19.4
2017-08-24T01:50:04.562Z,19.4
2017-08-24T01:51:06.459Z,19.4
2017-08-24T01:52:08.609Z,19.3
2017-08-24T01:53:10.560Z,19.4
2017-08-24T01:54:12.418Z,19.4
2017-08-24T01:55:14.303Z,19.4
2017-08-24T01:56:16.171Z,19.3
2017-08-24T01:57:18.170Z,19.3
2017-08-24T01:58:20.130Z,19.2
2017-08-24T01:59:22.057Z,19.2
2017-08-24T02:00:24.017Z,19.3
2017-08-24T02:01:25.833Z,19.2
2017-08-24T02:02:27.873Z,19.1
2017-08-24T02:03:29.796Z,19.1
2017-08-24T02:04:31.825Z,19.1
2017-08-24T02:05:33.792Z,19.0
2017-08-24T02:06:35.657Z,19.0
2017-08-24T02:07:37.485Z,19.0
2017-08-24T02:08:39.289Z,18.9
2017-08-24T02:09:41.189Z,18.9
2017-08-24T02:10:43.057Z,18.9
2017-08-24T02:11:44.862Z,18.9
2017-08-24T02:12:46.698Z,18.9
2017-08-24T02:13:48.529Z,18.8
2017-08-24T02:14:50.312Z,18.8
2017-08-24T02:15:52.276Z,18.8
2017-08-24T02:16:54.223Z,18.7
2017-08-24T02:17:56.267Z,18.7
2017-08-24T02:18:58.172Z,18.7
2017-08-24T02:20:00.157Z,18.7
2017-08-24T02:21:02.167Z,18.7
2017-08-24T02:22:04.137Z,18.6
2017-08-24T02:23:06.157Z,18.6
2017-08-24T02:24:08.242Z,18.6
2017-08-24T02:25:10.210Z,18.6
2017-08-24T02:26:12.248Z,18.6
2017-08-24T02:27:14.125Z,18.6
2017-08-24T02:28:16.136Z,18.6
2017-08-24T02:29:17.990Z,18.6
2017-08-24T02:30:20.017Z,18.6
2017-08-24T02:31:21.964Z,18.6
2017-08-24T02:32:23.885Z,18.7
2017-08-24T02:33:25.751Z,18.6
2017-08-24T02:34:27.636Z,18.7
2017-08-24T02:35:29.607Z,18.6
2017-08-24T02:36:31.678Z,18.6
2017-08-24T02:37:33.538Z,18.7
2017-08-24T02:38:35.453Z,18.6
2017-08-24T02:39:37.234Z,18.6
2017-08-24T02:40:39.143Z,18.7
2017-08-24T02:41:41.046Z,18.6
2017-08-24T02:42:42.971Z,18.7
2017-08-24T02:43:44.906Z,18.6
2017-08-24T02:44:46.920Z,18.6
2017-08-24T02:45:48.827Z,18.7
2017-08-24T02:46:50.886Z,18.6
2017-08-24T02:47:52.811Z,18.6
2017-08-24T02:48:54.782Z,18.6
2017-08-24T02:49:56.699Z,18.5
2017-08-24T02:50:58.679Z,18.6
2017-08-24T02:52:00.504Z,18.6
2017-08-24T02:53:02.496Z,18.6
2017-08-24T02:54:04.284Z,18.6
2017-08-24T02:55:06.204Z,18.6
2017-08-24T02:56:08.149Z,18.5
2017-08-24T02:57:10.070Z,18.5
2017-08-24T02:58:11.975Z,18.5
2017-08-24T02:59:13.964Z,18.4
2017-08-24T03:00:16.025Z,18.5
2017-08-24T03:01:17.898Z,18.5
2017-08-24T03:02:19.859Z,18.5
2017-08-24T03:03:21.867Z,18.6
2017-08-24T03:04:23.824Z,18.6
2017-08-24T03:05:25.728Z,18.6
2017-08-24T03:06:27.752Z,18.6
2017-08-24T03:07:29.725Z,18.6
2017-08-24T03:08:31.766Z,18.7
2017-08-24T03:09:33.930Z,18.7
2017-08-24T03:10:35.877Z,18.7
2017-08-24T03:11:37.812Z,18.7
2017-08-24T03:12:39.738Z,18.7
2017-08-24T03:13:41.731Z,18.8
2017-08-24T03:14:43.707Z,18.6
2017-08-24T03:15:45.627Z,18.6
2017-08-24T03:16:47.625Z,18.7
2017-08-24T03:17:49.718Z,18.8
2017-08-24T03:18:51.565Z,18.8
2017-08-24T03:19:53.519Z,18.8
2017-08-24T03:20:55.368Z,18.9
2017-08-24T03:21:57.256Z,18.9
2017-08-24T03:22:59.193Z,18.8
2017-08-24T03:24:01.439Z,19.0
2017-08-24T03:25:03.451Z,19.3
2017-08-24T03:26:05.343Z,19.2
2017-08-24T03:27:07.229Z,19.3
2017-08-24T03:28:09.137Z,19.4
2017-08-24T03:29:11.106Z,19.3
2017-08-24T03:30:12.948Z,19.3
2017-08-24T03:31:14.830Z,19.2
2017-08-24T03:32:16.713Z,19.3
2017-08-24T03:33:18.545Z,19.2
2017-08-24T03:34:20.473Z,19.0
2017-08-24T03:35:22.500Z,19.0
2017-08-24T03:36:24.506Z,19.1
2017-08-24T03:37:26.462Z,19.0
2017-08-24T03:38:28.544Z,19.0
2017-08-24T03:39:30.638Z,18.9
2017-08-24T03:40:32.730Z,18.9
2017-08-24T03:41:34.668Z,18.9
2017-08-24T03:42:36.596Z,18.9
2017-08-24T03:43:38.651Z,18.8
2017-08-24T03:44:40.571Z,18.8
2017-08-24T03:45:42.425Z,18.8
2017-08-24T03:46:44.370Z,18.9
2017-08-24T03:47:46.290Z,18.9
2017-08-24T03:48:48.238Z,18.9
2017-08-24T03:49:50.208Z,18.9
2017-08-24T03:50:52.219Z,18.9
2017-08-24T03:51:53.970Z,18.8
2017-08-24T03:52:55.737Z,18.9
2017-08-24T03:53:57.440Z,18.9
2017-08-24T03:54:59.187Z,18.9
2017-08-24T03:56:01.030Z,18.9
2017-08-24T03:57:02.707Z,18.8
2017-08-24T03:58:04.435Z,18.8
2017-08-24T03:59:06.179Z,18.8
2017-08-24T04:00:08.007Z,18.7
2017-08-24T04:01:09.829Z,18.7
2017-08-24T04:02:11.472Z,18.7
2017-08-24T04:03:13.161Z,18.8
2017-08-24T04:04:15.069Z,18.7
2017-08-24T04:05:16.993Z,18.7
2017-08-24T04:06:19.157Z,18.7
2017-08-24T04:07:21.209Z,18.6
2017-08-24T04:08:23.199Z,18.7
2017-08-24T04:09:25.211Z,18.6
2017-08-24T04:10:27.162Z,18.6
2017-08-24T04:11:29.180Z,18.6
2017-08-24T04:12:31.071Z,18.5
2017-08-24T04:13:33.070Z,18.6
2017-08-24T04:14:35.231Z,18.6
2017-08-24T04:15:37.178Z,18.6
2017-08-24T04:16:39.054Z,18.7
2017-08-24T04:17:40.902Z,18.8
2017-08-24T04:18:42.803Z,18.9
2017-08-24T04:19:44.625Z,18.8
2017-08-24T04:20:46.353Z,18.9
2017-08-24T04:21:48.269Z,19.1
2017-08-24T04:22:50.173Z,19.0
2017-08-24T04:23:52.159Z,19.1
2017-08-24T04:24:54.060Z,19.1
2017-08-24T04:25:55.954Z,19.0
2017-08-24T04:26:57.878Z,19.1
2017-08-24T04:27:59.842Z,19.1
2017-08-24T04:29:01.884Z,19.1
2017-08-24T04:30:03.819Z,19.1
2017-08-24T04:31:05.831Z,19.2
2017-08-24T04:32:07.791Z,19.2
2017-08-24T04:33:09.630Z,19.2
2017-08-24T04:34:11.638Z,19.2
2017-08-24T04:35:13.591Z,19.2
2017-08-24T04:36:15.577Z,19.1
2017-08-24T04:37:17.675Z,19.2
2017-08-24T04:38:19.670Z,19.3
2017-08-24T04:39:21.606Z,19.2
2017-08-24T04:40:23.684Z,19.2
2017-08-24T04:41:25.509Z,19.3
2017-08-24T04:42:27.566Z,19.2
2017-08-24T04:43:29.594Z,19.3
2017-08-24T04:44:31.598Z,19.3
2017-08-24T04:45:33.618Z,19.4
2017-08-24T04:46:35.662Z,19.3
2017-08-24T04:47:37.591Z,19.3
2017-08-24T04:48:39.524Z,19.4
2017-08-24T04:49:41.415Z,19.5
2017-08-24T04:50:43.197Z,19.4
2017-08-24T04:51:45.158Z,19.3
2017-08-24T04:52:47.077Z,19.5
2017-08-24T04:53:48.936Z,19.4
2017-08-24T04:54:50.783Z,19.5
2017-08-24T04:55:52.838Z,19.4
2017-08-24T04:56:54.717Z,19.5
2017-08-24T04:57:56.729Z,19.5
2017-08-24T04:58:58.571Z,19.4
2017-08-24T05:00:00.520Z,19.5
2017-08-24T05:01:02.589Z,19.4
2017-08-24T05:02:04.572Z,19.4
2017-08-24T05:03:06.582Z,19.5
2017-08-24T05:04:08.470Z,19.5
2017-08-24T05:05:10.401Z,19.4
2017-08-24T05:06:12.340Z,19.4
2017-08-24T05:07:14.174Z,19.5
2017-08-24T05:08:16.238Z,19.5
2017-08-24T05:09:18.140Z,19.5
2017-08-24T05:10:20.088Z,19.5
2017-08-24T05:11:22.110Z,19.6
2017-08-24T05:12:24.079Z,19.5
2017-08-24T05:13:26.039Z,19.6
2017-08-24T05:14:27.881Z,19.6
2017-08-24T05:15:29.899Z,19.6
2017-08-24T05:16:32.008Z,19.6
2017-08-24T05:17:34.016Z,19.6
2017-08-24T05:18:36.009Z,19.6
2017-08-24T05:19:37.956Z,19.6
2017-08-24T05:20:39.663Z,19.5
2017-08-24T05:21:41.466Z,19.5
2017-08-24T05:22:43.162Z,19.5
2017-08-24T05:23:44.910Z,19.7
2017-08-24T05:24:46.584Z,19.6
2017-08-24T05:25:48.362Z,19.5
2017-08-24T05:26:50.423Z,19.6
2017-08-24T05:27:52.456Z,19.7
2017-08-24T05:28:54.416Z,19.7
2017-08-24T05:29:56.351Z,19.7
2017-08-24T05:30:58.356Z,19.7
2017-08-24T05:32:00.330Z,19.7
2017-08-24T05:33:02.381Z,19.7
2017-08-24T05:34:04.242Z,19.7
2017-08-24T05:35:06.326Z,19.8
2017-08-24T05:36:08.354Z,19.8
2017-08-24T05:37:10.370Z,19.8
2017-08-24T05:38:12.388Z,19.8
2017-08-24T05:39:14.445Z,19.9
2017-08-24T05:40:16.378Z,19.9
2017-08-24T05:41:18.365Z,19.8
2017-08-24T05:42:20.325Z,19.9
2017-08-24T05:43:22.219Z,19.9
2017-08-24T05:44:24.005Z,19.9
2017-08-24T05:45:25.936Z,20.0
2017-08-24T05:46:27.770Z,20.0
2017-08-24T05:47:29.721Z,20.1
2017-08-24T05:48:31.723Z,20.0
2017-08-24T05:49:33.653Z,20.1
2017-08-24T05:50:35.560Z,20.1
2017-08-24T05:51:37.514Z,20.1
2017-08-24T05:52:39.533Z,20.1
2017-08-24T05:53:42.326Z,20.1
2017-08-24T05:54:44.292Z,20.2
2017-08-24T05:55:46.220Z,20.2
2017-08-24T05:56:48.135Z,20.3
2017-08-24T05:57:50.285Z,20.3
2017-08-24T05:58:52.526Z,20.2
2017-08-24T05:59:54.490Z,20.3
2017-08-24T06:00:56.411Z,20.3
2017-08-24T06:01:58.432Z,20.3
2017-08-24T06:03:00.335Z,20.3
2017-08-24T06:04:02.431Z,20.3
2017-08-24T06:05:04.353Z,20.4
2017-08-24T06:06:06.264Z,20.4
2017-08-24T06:07:08.338Z,20.4
2017-08-24T06:08:10.279Z,20.4
2017-08-24T06:09:12.366Z,20.4
2017-08-24T06:10:14.329Z,20.4
2017-08-24T06:11:16.240Z,20.5
2017-08-24T06:12:18.256Z,20.6
2017-08-24T06:13:20.396Z,20.6
2017-08-24T06:14:22.361Z,20.6
2017-08-24T06:15:24.399Z,20.5
2017-08-24T06:16:26.477Z,20.7
2017-08-24T06:17:28.387Z,20.6
2017-08-24T06:18:30.409Z,20.7
2017-08-24T06:19:32.519Z,20.8
2017-08-24T06:20:34.444Z,20.7
2017-08-24T06:21:36.521Z,20.8
2017-08-24T06:22:38.615Z,20.9
2017-08-24T06:23:40.623Z,20.8
2017-08-24T06:24:42.707Z,20.9
2017-08-24T06:25:44.702Z,20.8
2017-08-24T06:26:46.789Z,20.9
2017-08-24T06:27:48.833Z,21.0
2017-08-24T06:28:50.789Z,21.0
2017-08-24T06:29:52.714Z,21.1
2017-08-24T06:30:54.631Z,21.1
2017-08-24T06:31:56.634Z,21.1
2017-08-24T06:32:58.731Z,21.2
2017-08-24T06:34:00.677Z,21.2
2017-08-24T06:35:02.739Z,21.2
2017-08-24T06:36:04.850Z,21.2
2017-08-24T06:37:06.816Z,21.3
2017-08-24T06:38:08.903Z,21.4
2017-08-24T06:39:10.901Z,21.4
2017-08-24T06:40:12.887Z,21.4
2017-08-24T06:41:14.918Z,21.4
2017-08-24T06:42:17.134Z,21.4
2017-08-24T06:43:19.153Z,21.5
2017-08-24T06:44:21.080Z,21.5
2017-08-24T06:45:23.194Z,21.6
2017-08-24T06:46:25.222Z,21.6
2017-08-24T06:47:27.141Z,21.6
2017-08-24T06:48:29.139Z,21.6
2017-08-24T06:49:31.244Z,21.7
2017-08-24T06:50:33.219Z,21.7
2017-08-24T06:51:35.185Z,21.7
2017-08-24T06:52:37.267Z,21.6
2017-08-24T06:53:39.166Z,21.6
2017-08-24T06:54:41.097Z,21.7
2017-08-24T06:55:43.089Z,21.7
2017-08-24T06:56:45.013Z,21.8
2017-08-24T06:57:46.940Z,21.8
2017-08-24T06:58:48.989Z,21.8
2017-08-24T06:59:50.868Z,22.0
2017-08-24T07:01:51.265Z,22.0
2017-08-24T07:02:53.300Z,22.0
2017-08-24T07:03:55.340Z,22.1
2017-08-24T07:04:57.186Z,22.0
2017-08-24T07:05:59.163Z,22.1
2017-08-24T07:07:01.282Z,22.1
2017-08-24T07:08:02.898Z,22.0
2017-08-24T07:09:04.650Z,22.0
2017-08-24T07:10:06.440Z,21.9
2017-08-24T07:11:07.957Z,21.9
2017-08-24T07:12:09.686Z,22.0
2017-08-24T07:13:11.312Z,21.9
2017-08-24T07:14:13.007Z,21.9
2017-08-24T07:15:14.843Z,21.9
2017-08-24T07:16:16.476Z,22.0
2017-08-24T07:17:18.071Z,22.0
2017-08-24T07:18:19.792Z,22.1
2017-08-24T07:19:21.491Z,22.1
2017-08-24T07:20:23.168Z,22.0
2017-08-24T07:21:24.981Z,22.1
2017-08-24T07:22:26.521Z,22.3
2017-08-24T07:23:28.341Z,22.3
2017-08-24T07:24:29.989Z,22.4
2017-08-24T07:25:31.675Z,22.5
2017-08-24T07:26:33.395Z,22.4
2017-08-24T07:27:35.082Z,22.6
2017-08-24T07:28:36.922Z,22.7
2017-08-24T07:29:38.589Z,22.9
2017-08-24T07:30:40.405Z,23.1
2017-08-24T07:31:42.159Z,23.1
2017-08-24T07:32:43.702Z,23.3
2017-08-24T07:33:45.420Z,23.4
2017-08-24T07:34:47.216Z,23.4
2017-08-24T07:35:49.035Z,23.4
2017-08-24T07:36:50.810Z,23.6
2017-08-24T07:37:52.414Z,23.5
2017-08-24T07:38:54.021Z,23.6
2017-08-24T07:39:55.757Z,23.6
2017-08-24T07:40:57.493Z,23.8
2017-08-24T07:41:59.357Z,23.8
2017-08-24T07:43:01.129Z,23.9
2017-08-24T07:44:02.921Z,24.0
2017-08-24T07:45:04.717Z,23.9
2017-08-24T07:46:06.522Z,23.8
2017-08-24T07:47:08.287Z,23.9
2017-08-24T07:48:10.027Z,24.0
2017-08-24T07:49:11.716Z,24.1
2017-08-24T07:50:13.369Z,24.2
2017-08-24T07:51:15.163Z,24.0
2017-08-24T07:52:16.986Z,24.0
2017-08-24T07:53:18.681Z,24.1
2017-08-24T07:54:20.564Z,24.1
2017-08-24T07:55:22.232Z,24.1
2017-08-24T07:56:24.001Z,24.2
2017-08-24T07:57:25.672Z,24.3
2017-08-24T07:58:27.790Z,24.4
2017-08-24T07:59:29.432Z,24.3
2017-08-24T08:00:31.087Z,24.3
2017-08-24T08:01:51.252Z,24.4
2017-08-24T08:02:52.904Z,24.4
2017-08-24T08:03:54.472Z,24.3
2017-08-24T08:04:56.105Z,24.3
2017-08-24T08:05:57.861Z,24.4
2017-08-24T08:06:59.538Z,24.4
2017-08-24T08:08:01.151Z,24.3
2017-08-24T08:09:02.772Z,24.3
2017-08-24T08:10:04.384Z,24.4
2017-08-24T08:11:06.010Z,24.5
2017-08-24T08:12:07.602Z,24.6
2017-08-24T08:13:09.183Z,24.7
2017-08-24T08:14:10.869Z,24.7
2017-08-24T08:15:12.461Z,24.9
2017-08-24T08:16:14.139Z,24.8
2017-08-24T08:17:15.833Z,24.8
2017-08-24T08:18:17.415Z,24.7
2017-08-24T08:19:19.173Z,24.8
2017-08-24T08:20:20.773Z,24.9
2017-08-24T08:21:22.493Z,24.9
2017-08-24T08:22:24.205Z,25.2
2017-08-24T08:23:25.934Z,25.1
2017-08-24T08:24:27.626Z,25.2
2017-08-24T08:25:29.273Z,25.4
2017-08-24T08:26:30.996Z,25.4
2017-08-24T08:27:32.663Z,25.4
2017-08-24T08:28:34.239Z,25.5
2017-08-24T08:29:35.926Z,25.6
2017-08-24T08:30:37.678Z,25.6
2017-08-24T08:31:39.240Z,25.7
2017-08-24T08:32:40.915Z,25.9
2017-08-24T08:33:42.691Z,26.1
2017-08-24T08:34:44.266Z,26.1
2017-08-24T08:35:45.877Z,26.2
2017-08-24T08:36:47.505Z,26.1
2017-08-24T08:37:49.045Z,26.1
2017-08-24T08:38:50.688Z,26.1
2017-08-24T08:39:52.275Z,26.2
2017-08-24T08:40:53.974Z,26.3
2017-08-24T08:41:55.730Z,26.2
2017-08-24T08:42:57.311Z,26.1
2017-08-24T08:43:58.968Z,26.0
2017-08-24T08:45:00.631Z,26.2
2017-08-24T08:46:02.353Z,26.2
2017-08-24T08:47:04.045Z,26.0
2017-08-24T08:48:05.737Z,26.0
2017-08-24T08:49:07.493Z,26.0
2017-08-24T08:50:09.231Z,25.9
2017-08-24T08:51:10.885Z,25.7
2017-08-24T08:52:12.591Z,25.6
2017-08-24T08:53:14.252Z,25.7
2017-08-24T08:54:15.942Z,25.5
2017-08-24T08:55:17.649Z,25.5
2017-08-24T08:56:19.381Z,25.5
2017-08-24T08:57:21.130Z,25.4
2017-08-24T08:58:22.907Z,25.4
2017-08-24T08:59:24.726Z,25.5
2017-08-24T09:00:26.285Z,25.6
2017-08-24T09:01:51.344Z,25.7
2017-08-24T09:02:53.034Z,25.7
2017-08-24T09:03:54.697Z,25.8
2017-08-24T09:05:47.529Z,25.8
2017-08-24T09:06:49.696Z,26.0
2017-08-24T09:07:51.776Z,25.9
2017-08-24T09:08:53.800Z,25.8
2017-08-24T09:09:55.762Z,26.0
2017-08-24T09:10:57.849Z,25.8
2017-08-24T09:11:59.986Z,25.7
2017-08-24T09:13:02.045Z,25.8
2017-08-24T09:14:04.080Z,25.8
2017-08-24T09:15:06.019Z,25.6
2017-08-24T09:16:07.941Z,25.6
2017-08-24T09:17:09.960Z,25.7
2017-08-24T09:18:12.058Z,25.5
2017-08-24T09:19:14.113Z,25.6
2017-08-24T09:20:16.145Z,25.5
2017-08-24T09:21:18.252Z,25.5
2017-08-24T09:22:20.295Z,25.5
2017-08-24T09:23:22.225Z,25.7
2017-08-24T09:24:24.230Z,25.7
2017-08-24T09:25:26.295Z,25.7
2017-08-24T09:26:28.447Z,25.8
2017-08-24T09:27:30.377Z,26.0
2017-08-24T09:28:32.347Z,26.1
2017-08-24T09:29:34.373Z,26.1
2017-08-24T09:30:36.521Z,26.2
2017-08-24T09:31:38.632Z,26.1
2017-08-24T09:32:40.613Z,26.5
2017-08-24T09:33:42.674Z,26.8
2017-08-24T09:34:44.770Z,27.0
2017-08-24T09:35:46.787Z,26.9
2017-08-24T09:36:48.929Z,26.9
2017-08-24T09:37:50.993Z,27.0
2017-08-24T09:38:53.145Z,27.1
2017-08-24T09:39:55.187Z,27.3
2017-08-24T09:40:57.250Z,27.3
2017-08-24T09:41:59.248Z,27.2
2017-08-24T09:43:01.348Z,27.0
2017-08-24T09:44:03.373Z,26.8
2017-08-24T09:45:05.577Z,26.7
2017-08-24T09:46:07.690Z,26.8
2017-08-24T09:47:09.807Z,26.9
2017-08-24T09:48:11.765Z,27.1
2017-08-24T09:49:13.827Z,27.0
2017-08-24T09:50:15.838Z,27.2
2017-08-24T09:51:17.932Z,27.2
2017-08-24T09:52:19.939Z,27.0
2017-08-24T09:53:22.106Z,26.8
2017-08-24T09:54:24.193Z,27.1
2017-08-24T09:55:26.238Z,27.4
2017-08-24T09:56:28.278Z,27.3
2017-08-24T09:57:30.334Z,27.6
2017-08-24T09:58:32.501Z,27.6
2017-08-24T09:59:34.583Z,27.4
2017-08-24T10:01:51.659Z,27.3
2017-08-24T10:02:53.689Z,27.6
2017-08-24T10:03:55.919Z,27.4
2017-08-24T10:04:57.855Z,27.7
2017-08-24T10:05:59.854Z,27.7
2017-08-24T10:07:01.841Z,27.9
2017-08-24T10:08:03.962Z,28.3
2017-08-24T10:09:06.019Z,28.2
2017-08-24T10:10:08.102Z,28.1
2017-08-24T10:11:10.157Z,27.7
2017-08-24T10:12:12.272Z,27.3
2017-08-24T10:13:14.708Z,27.3
2017-08-24T10:14:16.642Z,27.4
2017-08-24T10:15:18.762Z,27.7
2017-08-24T10:16:20.726Z,27.7
2017-08-24T10:17:22.841Z,27.8
2017-08-24T10:18:24.847Z,27.9
2017-08-24T10:19:26.945Z,28.0
2017-08-24T10:20:28.956Z,27.8
2017-08-24T10:21:31.110Z,27.9
2017-08-24T10:22:33.323Z,27.7
2017-08-24T10:23:35.319Z,27.8
2017-08-24T10:24:37.366Z,28.2
2017-08-24T10:25:39.547Z,28.3
2017-08-24T10:26:41.671Z,28.0
2017-08-24T10:27:43.659Z,27.9
2017-08-24T10:28:45.815Z,28.0
2017-08-24T10:29:47.768Z,27.8
2017-08-24T10:30:49.717Z,27.9
2017-08-24T10:31:51.649Z,28.2
2017-08-24T10:32:53.680Z,27.9
2017-08-24T10:33:55.857Z,28.0
2017-08-24T10:34:57.928Z,28.2
2017-08-24T10:36:00.016Z,28.2
2017-08-24T10:37:02.285Z,28.3
2017-08-24T10:38:04.303Z,28.5
2017-08-24T10:39:06.291Z,28.4
2017-08-24T10:40:08.241Z,28.4
2017-08-24T10:41:10.289Z,28.7
2017-08-24T10:42:12.329Z,29.0
2017-08-24T10:43:14.276Z,29.0
2017-08-24T10:44:16.435Z,29.1
2017-08-24T10:45:18.392Z,29.1
2017-08-24T10:46:20.416Z,29.0
2017-08-24T10:47:22.457Z,28.6
2017-08-24T10:48:24.366Z,28.3
2017-08-24T10:49:26.413Z,28.6
2017-08-24T10:50:28.736Z,28.3
2017-08-24T10:51:30.737Z,28.4
2017-08-24T10:52:32.942Z,28.6
2017-08-24T10:53:34.917Z,28.4
2017-08-24T10:54:37.071Z,28.1
2017-08-24T10:55:39.070Z,28.1
2017-08-24T10:56:41.156Z,28.1
2017-08-24T10:57:43.265Z,28.2
2017-08-24T10:58:45.203Z,28.2
2017-08-24T10:59:47.286Z,28.2
2017-08-24T11:00:49.312Z,28.1
2017-08-24T11:01:51.308Z,27.9
2017-08-24T11:02:53.328Z,27.6
2017-08-24T11:03:55.262Z,27.6
2017-08-24T11:04:57.240Z,27.6
2017-08-24T11:05:59.447Z,27.6
2017-08-24T11:07:01.543Z,27.5
2017-08-24T11:08:03.578Z,27.4
2017-08-24T11:09:05.634Z,27.7
2017-08-24T11:10:07.757Z,27.8
2017-08-24T11:11:09.884Z,27.7
2017-08-24T11:12:11.829Z,27.8
2017-08-24T11:13:13.926Z,27.7
2017-08-24T11:14:16.066Z,27.3
2017-08-24T11:15:18.358Z,27.4
2017-08-24T11:16:20.435Z,27.6
2017-08-24T11:17:22.407Z,27.6
2017-08-24T11:18:24.352Z,27.5
2017-08-24T11:19:26.287Z,27.5
2017-08-24T11:20:28.316Z,27.7
2017-08-24T11:21:30.314Z,27.4
2017-08-24T11:22:32.481Z,27.5
2017-08-24T11:23:34.466Z,27.4
2017-08-24T11:24:36.541Z,27.4
2017-08-24T11:25:38.713Z,27.4
2017-08-24T11:26:40.788Z,27.4
2017-08-24T11:27:42.934Z,27.4
2017-08-24T11:28:45.033Z,27.3
2017-08-24T11:29:47.121Z,27.5
2017-08-24T11:30:49.100Z,27.4
2017-08-24T11:31:51.069Z,27.4
2017-08-24T11:32:53.235Z,27.3
2017-08-24T11:33:55.159Z,27.2
2017-08-24T11:34:57.191Z,27.2
2017-08-24T11:35:59.328Z,27.3
2017-08-24T11:37:01.458Z,27.5
2017-08-24T11:38:03.543Z,27.5
2017-08-24T11:39:05.600Z,27.6
2017-08-24T11:40:07.666Z,27.6
2017-08-24T11:41:09.813Z,27.7
2017-08-24T11:42:11.839Z,27.7
2017-08-24T11:43:13.975Z,27.7
2017-08-24T11:44:15.930Z,27.6
2017-08-24T11:45:17.849Z,27.7
2017-08-24T11:46:19.849Z,27.7
2017-08-24T11:47:21.956Z,27.6
2017-08-24T11:48:24.020Z,27.7
2017-08-24T11:49:26.068Z,27.7
2017-08-24T11:50:28.212Z,27.8
2017-08-24T11:51:30.246Z,27.8
2017-08-24T11:52:32.486Z,27.9
2017-08-24T11:53:34.523Z,28.0
2017-08-24T11:54:36.731Z,27.9
2017-08-24T11:55:38.854Z,27.9
2017-08-24T11:56:40.884Z,27.9
2017-08-24T11:57:43.000Z,27.9
2017-08-24T11:58:45.351Z,27.8
2017-08-24T11:59:47.311Z,27.9
2017-08-24T12:00:49.353Z,27.9
2017-08-24T12:01:51.445Z,27.9
2017-08-24T12:02:53.543Z,27.9
2017-08-24T12:03:55.673Z,27.7
2017-08-24T12:04:57.911Z,27.9
2017-08-24T12:05:59.905Z,28.0
2017-08-24T12:07:02.006Z,27.9
2017-08-24T12:08:04.011Z,28.0
2017-08-24T12:09:06.046Z,28.1
2017-08-24T12:10:08.086Z,28.1
2017-08-24T12:11:10.027Z,28.2
2017-08-24T12:12:12.178Z,28.3
2017-08-24T12:13:14.219Z,28.4
2017-08-24T12:14:16.216Z,28.4
2017-08-24T12:15:18.383Z,28.1
2017-08-24T12:16:20.419Z,27.8
2017-08-24T12:17:22.538Z,28.0
2017-08-24T12:18:24.704Z,27.9
2017-08-24T12:19:26.718Z,27.9
2017-08-24T12:20:28.848Z,28.1
2017-08-24T12:21:31.107Z,28.2
2017-08-24T12:22:33.216Z,28.0
2017-08-24T12:23:35.124Z,27.9
2017-08-24T12:24:37.281Z,27.9
2017-08-24T12:25:39.468Z,27.8
2017-08-24T12:26:41.475Z,27.9
2017-08-24T12:27:43.607Z,27.9
2017-08-24T12:28:45.884Z,27.9
2017-08-24T12:29:47.941Z,27.8
2017-08-24T12:30:49.953Z,27.6
2017-08-24T12:31:51.917Z,27.7
2017-08-24T12:32:54.120Z,27.8
2017-08-24T12:33:56.191Z,27.9
2017-08-24T12:34:58.222Z,28.1
2017-08-24T12:36:00.321Z,28.1
2017-08-24T12:37:02.387Z,28.0
2017-08-24T12:38:04.625Z,28.1
2017-08-24T12:39:06.663Z,28.1
2017-08-24T12:40:08.695Z,28.2
2017-08-24T12:41:10.612Z,28.2
2017-08-24T12:42:12.663Z,28.2
2017-08-24T12:43:14.780Z,28.2
2017-08-24T12:44:16.729Z,28.1
2017-08-24T12:45:18.718Z,28.2
2017-08-24T12:46:20.728Z,28.2
2017-08-24T12:47:22.747Z,28.3
2017-08-24T12:48:24.836Z,28.2
2017-08-24T12:49:26.853Z,28.2
2017-08-24T12:50:28.898Z,28.2
2017-08-24T12:51:31.055Z,28.1
2017-08-24T12:52:33.703Z,27.9
2017-08-24T12:53:35.077Z,28.0
2017-08-24T12:54:37.122Z,28.0
2017-08-24T12:55:39.186Z,27.7
2017-08-24T12:56:41.511Z,27.6
2017-08-24T12:57:43.630Z,27.7
2017-08-24T12:58:45.725Z,27.7
2017-08-24T12:59:47.865Z,27.8
2017-08-24T13:00:49.971Z,27.8
2017-08-24T13:01:52.079Z,27.8
2017-08-24T13:02:54.026Z,28.0
2017-08-24T13:03:56.108Z,27.9
2017-08-24T13:04:58.152Z,27.9
2017-08-24T13:06:00.195Z,27.9
2017-08-24T13:07:02.315Z,28.1
2017-08-24T13:08:04.370Z,27.7
2017-08-24T13:09:06.497Z,27.9
2017-08-24T13:10:08.517Z,28.0
2017-08-24T13:11:10.604Z,28.2
2017-08-24T13:12:12.645Z,28.2
2017-08-24T13:13:14.627Z,28.2
2017-08-24T13:14:16.778Z,28.2
2017-08-24T13:15:18.895Z,28.0
2017-08-24T13:16:21.066Z,28.1
2017-08-24T13:17:23.071Z,28.3
2017-08-24T13:18:25.142Z,28.2
2017-08-24T13:19:27.356Z,28.3
2017-08-24T13:20:29.336Z,28.4
2017-08-24T13:21:31.457Z,28.4
2017-08-24T13:22:33.724Z,28.3
2017-08-24T13:23:35.863Z,28.4
2017-08-24T13:24:37.956Z,28.5
2017-08-24T13:25:39.879Z,28.6
2017-08-24T13:26:41.942Z,28.5
2017-08-24T13:27:43.972Z,28.6
2017-08-24T13:28:46.006Z,28.6
2017-08-24T13:29:48.043Z,28.6
2017-08-24T13:30:49.986Z,28.3
2017-08-24T13:31:52.037Z,28.2
2017-08-24T13:32:54.218Z,28.4
2017-08-24T13:33:56.448Z,28.3
2017-08-24T13:34:58.532Z,28.2
2017-08-24T13:36:00.909Z,27.8
2017-08-24T13:37:02.927Z,27.7
2017-08-24T13:38:05.590Z,27.8
2017-08-24T13:39:07.604Z,27.8
2017-08-24T13:40:09.716Z,27.8
2017-08-24T13:41:12.356Z,28.0
2017-08-24T13:42:14.292Z,28.0
2017-08-24T13:43:16.408Z,28.0
2017-08-24T13:44:18.461Z,28.1
2017-08-24T13:45:20.477Z,27.8
2017-08-24T13:46:24.050Z,27.8
2017-08-24T13:47:25.985Z,27.7
2017-08-24T13:48:27.966Z,27.6